River Hills, South Carolina
Current Conditions -  °F | °C
As of 2:54 AM on Saturday 25 Oct 2014 (Local Time) from KAKH Reporting Station
Clear Clear  
Wind Chill: 42°   Ceiling: Unl
Heat Index: 44°   Visibility: 9mi
Dew Point: 40°   Wind: 5mph
Humidity: 85%   Direction: 350°N
Pressure: 30.01"   Gusts: NA
Location:  35.1039°N, 81.2451°W
Report Text: KAKH 250654Z AUTO 35004KT 9SM CLR 07/04 A3001 RMK AO2 SLP159 T00670044
Loading
Personal Weather Stations






























Interactive Weather Map
Tropical Storm Tracking
New forecast layout! Learn more

10-Day Weather Forecast

Advertisements
Track Severe Weather on mobile